アトランタ の空港の天気 - METARとTAF

ハーツフィールド・ジャクソン・アトランタ国際空港 ( KATL / ATL ) - アメリカ ジョージア州アトランタ
飛行場実況気象(Metar)
観測時間10/19 13:52 EDT (10/19 17:52 UTC)
風向・風速南東 2m/s
視程10km以上
天気現象
全天の8割程度の雲 雲底高度 550m
全天を覆う雲 雲底高度 760m
気温17.8℃
湿度58%
気圧1024.5hPa
METARKATL 191752Z 13004KT 10SM BKN018 OVC025 18/09 A3026 RMK AO2 SLP245 T01780094 10183 20122 58023
過去の天気等 Google飛行場航空写真 Wunderground天気予報

過去48時間のMETAR

飛行場予報(TAF)
発表時間: 10/19 13:27 EDT (10/19 17:27 UTC)
予報対象時間: 19日14時 EDT ~ 20日20時 EDT
風向・風速南東 3m/s
視程10km以上
全天の8割程度の雲 雲底高度 760m
19日17時 EDT から
風向・風速南 3m/s
視程10km以上
全天の8割程度の雲 雲底高度 1070m
19日23時 EDT から
風向・風速南南西 2m/s
視程10km以上
全天の8割程度の雲 雲底高度 760m
20日3時 EDT から
風向・風速西南西 2m/s
視程10km以上
全天の8割程度の雲 雲底高度 460m
20日11時 EDT から
風向・風速西北西 4m/s
視程10km以上
全天の8割程度の雲 雲底高度 460m
20日12時 EDT から 確率 30% で
視程6440m
天気現象弱いしゅう雨
全天を覆う雲 雲底高度 370m
20日17時 EDT から
風向・風速西北西 6m/s 瞬間風速 10m/s
視程10km以上
全天の4割程度の雲 雲底高度 3050m
KATL 191727Z 1918/2024 14006KT P6SM BKN025
FM192100 17006KT P6SM BKN035
FM200300 20004KT P6SM BKN025
FM200700 25003KT P6SM BKN015
FM201500 29007KT P6SM BKN015
PROB30 2016/2018 4SM -SHRA OVC012
FM202100 30012G20KT P6SM SCT100